Time;durP1;ratioP1;P1;durP2;ratioP2;P2;SDS_P1;SDS_P2;PMS_P1;PMS_P2;Temp;Humidity;BMP_temperature;BMP_pressure;BME280_temperature;BME280_humidity;BME280_pressure;Samples;Min_cycle;Max_cycle;Signal;HPM_P1;HPM_P2
2023/03/31 00:00:25;;;;;;;36.25;5.97;;;;;;;;;;5013770;28;20048;-71
2023/03/31 00:02:53;;;;;;;37.35;5.70;;;;;;;;;;5013863;28;20100;-71
2023/03/31 00:05:20;;;;;;;36.25;6.55;;;;;;;;;;5013406;28;20053;-72
2023/03/31 00:07:48;;;;;;;33.95;6.90;;;11.40;99.90;;;;;;5014643;28;20042;-72
2023/03/31 00:10:14;;;;;;;38.38;6.43;;;11.10;99.90;;;;;;4998806;28;20444;-72
2023/03/31 00:12:40;;;;;;;30.20;6.40;;;11.30;99.90;;;;;;5015743;28;20046;-71
2023/03/31 00:15:06;;;;;;;38.65;6.25;;;11.20;99.90;;;;;;5013805;28;20533;-71
2023/03/31 00:17:32;;;;;;;39.15;7.38;;;;;;;;;;5013611;28;20045;-72
2023/03/31 00:20:01;;;;;;;25.33;4.90;;;;;;;;;;5013325;28;20045;-71
2023/03/31 00:22:26;;;;;;;34.40;7.15;;;11.20;99.90;;;;;;4997054;28;20053;-71
2023/03/31 00:24:52;;;;;;;37.75;5.75;;;11.20;99.90;;;;;;5013078;28;20033;-71
2023/03/31 00:27:19;;;;;;;34.00;5.82;;;;;;;;;;5013104;28;20052;-71
2023/03/31 00:29:45;;;;;;;38.08;6.90;;;;;;;;;;5013250;28;20417;-71
2023/03/31 00:32:13;;;;;;;30.17;5.57;;;11.00;99.90;;;;;;5013186;28;20124;-71
2023/03/31 00:34:39;;;;;;;32.97;7.05;;;;;;;;;;5013012;28;20095;-71
2023/03/31 00:37:08;;;;;;;27.48;5.60;;;10.90;99.90;;;;;;4996939;28;20132;-71
2023/03/31 00:39:35;;;;;;;30.27;5.97;;;10.90;99.90;;;;;;4996661;28;20077;-72
2023/03/31 00:42:04;;;;;;;31.35;6.70;;;10.80;99.90;;;;;;4996965;28;20099;-71
2023/03/31 00:44:33;;;;;;;28.85;7.22;;;10.80;99.90;;;;;;4996506;28;20088;-70
2023/03/31 00:47:11;;;;;;;30.88;6.78;;;10.80;99.90;;;;;;5013094;28;20038;-70
2023/03/31 00:49:43;;;;;;;34.70;6.40;;;10.90;99.90;;;;;;4996098;28;20042;-71
2023/03/31 00:52:12;;;;;;;26.75;6.00;;;;;;;;;;4996383;28;20069;-70
2023/03/31 00:54:39;;;;;;;36.05;5.68;;;10.70;99.90;;;;;;5012680;28;20107;-71
2023/03/31 00:57:07;;;;;;;30.80;6.05;;;10.90;99.90;;;;;;5013071;28;20052;-71
2023/03/31 00:59:39;;;;;;;25.50;5.35;;;10.70;99.90;;;;;;5012676;28;20057;-71
2023/03/31 01:02:05;;;;;;;34.75;6.50;;;10.80;99.90;;;;;;5012744;28;20069;-71
2023/03/31 01:04:34;;;;;;;33.92;5.05;;;10.60;99.90;;;;;;5012358;28;20049;-70
2023/03/31 01:07:11;;;;;;;27.13;5.28;;;10.80;99.90;;;;;;5013015;28;20042;-71
2023/03/31 01:09:38;;;;;;;30.77;6.35;;;10.60;99.90;;;;;;5012654;28;20088;-71
2023/03/31 01:12:07;;;;;;;31.40;6.25;;;10.60;99.90;;;;;;5012481;28;20045;-71
2023/03/31 01:14:33;;;;;;;27.73;5.28;;;10.60;99.90;;;;;;4995932;28;20520;-71
2023/03/31 01:16:59;;;;;;;33.92;6.70;;;10.60;99.90;;;;;;5012376;28;20073;-71
2023/03/31 01:19:38;;;;;;;28.58;5.28;;;10.80;99.90;;;;;;5012496;28;20106;-70
2023/03/31 01:22:26;;;;;;;30.38;6.15;;;10.60;99.90;;;;;;5013187;28;20046;-71
2023/03/31 01:25:22;;;;;;;31.98;5.60;;;10.60;99.90;;;;;;5014170;28;20113;-72
2023/03/31 01:28:13;;;;;;;32.50;6.18;;;10.60;99.90;;;;;;5012287;28;20490;-72
2023/03/31 01:30:58;;;;;;;29.60;5.40;;;10.20;99.90;;;;;;5012221;28;20128;-71
2023/03/31 01:33:51;;;;;;;37.47;6.15;;;10.60;99.90;;;;;;5012285;28;20092;-71
2023/03/31 01:36:29;;;;;;;29.15;5.38;;;10.50;99.90;;;;;;4995849;28;20137;-71
2023/03/31 01:39:18;;;;;;;15.48;4.03;;;10.50;99.90;;;;;;5012055;28;20050;-72
2023/03/31 01:41:50;;;;;;;28.75;5.32;;;10.40;99.90;;;;;;4995888;28;20405;-71
2023/03/31 01:44:30;;;;;;;36.42;5.20;;;10.60;99.90;;;;;;5011701;28;20378;-71
2023/03/31 01:47:05;;;;;;;28.95;4.63;;;10.40;99.90;;;;;;5011902;28;20044;-72
2023/03/31 01:50:02;;;;;;;23.67;5.30;;;10.40;99.90;;;;;;4995833;28;20611;-71
2023/03/31 01:52:41;;;;;;;32.75;6.43;;;10.50;99.90;;;;;;5011042;28;20046;-71
2023/03/31 01:55:28;;;;;;;26.63;5.75;;;10.40;99.90;;;;;;5011584;28;20049;-72
2023/03/31 01:58:01;;;;;;;25.27;4.55;;;10.40;99.90;;;;;;5012058;28;20537;-71
2023/03/31 02:00:33;;;;;;;24.17;4.15;;;10.60;99.90;;;;;;4995386;28;20030;-72
2023/03/31 02:03:06;;;;;;;27.27;5.10;;;10.40;99.90;;;;;;5010351;28;20049;-71
2023/03/31 02:05:38;;;;;;;25.00;5.53;;;10.60;99.90;;;;;;5011392;28;20099;-71
2023/03/31 02:08:12;;;;;;;26.83;5.85;;;10.60;99.90;;;;;;4995285;28;20041;-71
2023/03/31 02:10:41;;;;;;;18.13;4.00;;;10.60;99.90;;;;;;5011760;28;20129;-71
2023/03/31 02:13:09;;;;;;;22.48;4.75;;;10.70;99.90;;;;;;5011321;28;20046;-72
2023/03/31 02:15:40;;;;;;;25.27;5.45;;;10.50;99.90;;;;;;5011416;28;20466;-71
2023/03/31 02:18:10;;;;;;;21.80;4.53;;;10.60;99.90;;;;;;5011470;28;20042;-72
2023/03/31 02:20:40;;;;;;;25.88;6.60;;;10.70;99.90;;;;;;5011345;28;20045;-72
2023/03/31 02:23:08;;;;;;;24.50;5.28;;;10.70;99.90;;;;;;5011309;28;20045;-72
2023/03/31 02:25:40;;;;;;;23.25;4.88;;;10.60;99.90;;;;;;4994424;28;20413;-71
2023/03/31 02:28:11;;;;;;;25.40;5.10;;;10.50;99.90;;;;;;5011518;28;20394;-72
2023/03/31 02:31:09;;;;;;;23.02;4.88;;;10.60;99.90;;;;;;4994915;28;20057;-72
2023/03/31 02:33:35;;;;;;;21.20;4.95;;;;;;;;;;5011096;28;20132;-71
2023/03/31 02:36:01;;;;;;;22.70;4.38;;;10.80;99.90;;;;;;5011069;28;20061;-71
2023/03/31 02:38:30;;;;;;;29.23;5.68;;;10.70;99.90;;;;;;5011200;28;20050;-72
2023/03/31 02:40:55;;;;;;;24.80;4.85;;;10.60;99.90;;;;;;4997698;28;20038;-72
2023/03/31 02:43:21;;;;;;;22.13;4.53;;;10.70;99.90;;;;;;5010774;28;20498;-71
2023/03/31 02:45:49;;;;;;;38.25;5.63;;;10.30;99.90;;;;;;5010666;28;20121;-72
2023/03/31 02:48:17;;;;;;;23.42;4.57;;;10.70;99.90;;;;;;4994559;28;20038;-72
2023/03/31 02:51:07;;;;;;;30.15;5.75;;;10.60;99.90;;;;;;5012097;28;20092;-71
2023/03/31 02:54:18;;;;;;;15.32;3.97;;;10.50;99.90;;;;;;5003088;28;20099;-71
2023/03/31 02:56:53;;;;;;;15.77;3.35;;;10.60;99.90;;;;;;5010985;28;20064;-72
2023/03/31 02:59:37;;;;;;;19.75;4.95;;;10.70;99.90;;;;;;5010703;28;20053;-72
2023/03/31 03:02:09;;;;;;;;;;;10.50;99.90;;;;;;5011372;28;20494;-71
2023/03/31 03:05:22;;;;;;;27.90;5.20;;;10.50;99.90;;;;;;5026860;28;19963;-72
2023/03/31 03:07:48;;;;;;;21.02;3.88;;;;;;;;;;4973460;28;20061;-71
2023/03/31 03:10:43;;;;;;;21.23;4.22;;;10.40;99.90;;;;;;5010065;28;20570;-72
2023/03/31 03:13:24;;;;;;;27.30;4.95;;;10.60;99.90;;;;;;5015159;28;20085;-71
2023/03/31 03:16:00;;;;;;;23.48;4.93;;;10.70;99.90;;;;;;5010244;28;20038;-71
2023/03/31 03:18:26;;;;;;;23.23;4.25;;;10.60;99.90;;;;;;5010783;28;20592;-71
2023/03/31 03:20:51;;;;;;;22.45;4.90;;;10.50;99.90;;;;;;5010463;28;20121;-71
2023/03/31 03:23:17;;;;;;;18.02;3.78;;;10.60;99.90;;;;;;5010358;28;20042;-72
2023/03/31 03:25:43;;;;;;;20.25;4.90;;;10.40;99.90;;;;;;5010841;28;20053;-72
2023/03/31 03:28:09;;;;;;;15.98;4.38;;;10.70;99.90;;;;;;4993984;28;20096;-71
2023/03/31 03:30:35;;;;;;;25.38;4.30;;;;;;;;;;5010691;28;20046;-71
2023/03/31 03:33:02;;;;;;;16.92;4.05;;;10.70;99.90;;;;;;5010066;28;20147;-71
2023/03/31 03:35:27;;;;;;;19.48;4.45;;;10.50;99.90;;;;;;5010413;28;20046;-72
2023/03/31 03:37:53;;;;;;;18.02;4.28;;;10.70;99.90;;;;;;5010494;28;20046;-71
2023/03/31 03:40:19;;;;;;;19.45;3.80;;;10.80;99.90;;;;;;5009875;28;20037;-71
2023/03/31 03:42:44;;;;;;;19.08;3.72;;;10.70;99.90;;;;;;5009960;28;20100;-72
2023/03/31 03:45:10;;;;;;;20.38;4.10;;;;;;;;;;5010014;28;20118;-72
2023/03/31 03:47:36;;;;;;;24.45;4.47;;;;;;;;;;5010348;28;20048;-72
2023/03/31 03:50:03;;;;;;;19.52;4.85;;;10.80;99.90;;;;;;5010317;28;20117;-72
2023/03/31 03:52:29;;;;;;;17.02;4.10;;;;;;;;;;5009788;28;20109;-71
2023/03/31 03:54:55;;;;;;;19.98;4.63;;;10.70;99.90;;;;;;4993523;28;20048;-72
2023/03/31 03:57:21;;;;;;;20.73;4.60;;;;;;;;;;4993980;28;20445;-72
2023/03/31 03:59:47;;;;;;;16.27;4.38;;;;;;;;;;5009837;28;20446;-72
2023/03/31 04:02:13;;;;;;;17.80;5.13;;;10.80;99.90;;;;;;4993817;28;20041;-71
2023/03/31 04:04:38;;;;;;;17.83;5.80;;;10.80;99.90;;;;;;5010054;28;20406;-71
2023/03/31 04:07:04;;;;;;;14.90;5.82;;;;;;;;;;5010052;28;20045;-72
2023/03/31 04:09:30;;;;;;;15.85;5.00;;;10.60;99.90;;;;;;4993653;28;20547;-72
2023/03/31 04:11:56;;;;;;;17.30;5.85;;;10.80;99.90;;;;;;5010000;28;20124;-72
2023/03/31 04:14:21;;;;;;;16.58;5.28;;;10.90;99.90;;;;;;5009776;28;20042;-72
2023/03/31 04:16:47;;;;;;;19.05;6.43;;;10.70;99.90;;;;;;5010027;28;20045;-72
2023/03/31 04:19:16;;;;;;;19.95;5.50;;;10.80;99.90;;;;;;5010157;28;20514;-72
2023/03/31 04:21:44;;;;;;;21.10;6.70;;;;;;;;;;5011024;28;20112;-72
2023/03/31 04:24:14;;;;;;;17.77;5.22;;;10.90;99.90;;;;;;5010445;28;20054;-70
2023/03/31 04:26:43;;;;;;;13.50;4.78;;;10.80;99.90;;;;;;4996370;28;20037;-72
2023/03/31 04:29:15;;;;;;;20.08;5.65;;;10.70;99.90;;;;;;5013455;28;20048;-72
2023/03/31 04:31:42;;;;;;;19.10;5.70;;;10.70;99.90;;;;;;4997207;28;20045;-72
2023/03/31 04:34:12;;;;;;;16.02;5.43;;;10.80;99.90;;;;;;5012907;28;20046;-72
2023/03/31 04:36:41;;;;;;;15.48;5.32;;;10.60;99.90;;;;;;4996849;28;20064;-72
2023/03/31 04:39:09;;;;;;;16.10;5.20;;;;;;;;;;5013164;28;20038;-72
2023/03/31 04:41:35;;;;;;;19.42;5.10;;;10.80;99.90;;;;;;5013064;28;20041;-72
2023/03/31 04:44:01;;;;;;;11.05;4.75;;;;;;;;;;5012984;28;20390;-72
2023/03/31 04:46:27;;;;;;;15.95;5.53;;;;;;;;;;5012901;28;20045;-72
2023/03/31 04:48:53;;;;;;;18.50;5.72;;;10.70;99.90;;;;;;5013174;28;20100;-72
2023/03/31 04:51:19;;;;;;;15.80;5.40;;;10.80;99.90;;;;;;5013117;28;20110;-72
2023/03/31 04:53:45;;;;;;;23.20;5.43;;;10.80;99.90;;;;;;4996576;28;20493;-72
2023/03/31 04:56:11;;;;;;;20.63;6.70;;;10.60;99.90;;;;;;5012933;28;20045;-72
2023/03/31 04:58:38;;;;;;;15.45;5.13;;;;;;;;;;5012883;28;20038;-72
2023/03/31 05:01:06;;;;;;;18.40;6.07;;;10.70;99.90;;;;;;4996395;28;20045;-72
2023/03/31 05:03:33;;;;;;;17.08;6.05;;;10.90;99.90;;;;;;4997747;28;20405;-72
2023/03/31 05:05:59;;;;;;;19.35;5.90;;;;;;;;;;4996682;28;20045;-72
2023/03/31 05:08:26;;;;;;;16.05;6.97;;;;;;;;;;5012723;28;20042;-72
2023/03/31 05:10:52;;;;;;;16.63;6.43;;;10.90;99.90;;;;;;5012511;28;20054;-72
2023/03/31 05:13:18;;;;;;;17.65;6.35;;;10.80;99.90;;;;;;4996085;28;20563;-72
2023/03/31 05:15:44;;;;;;;17.90;7.43;;;;;;;;;;5012190;28;20042;-72
2023/03/31 05:18:10;;;;;;;13.68;5.82;;;;;;;;;;4995788;28;20180;-72
2023/03/31 05:20:36;;;;;;;19.67;5.60;;;;;;;;;;5012344;28;20038;-72
2023/03/31 05:23:02;;;;;;;17.10;6.90;;;10.80;99.90;;;;;;5012012;28;20042;-72
2023/03/31 05:25:31;;;;;;;18.17;6.70;;;10.70;99.90;;;;;;5012097;28;20034;-72
2023/03/31 05:27:58;;;;;;;18.38;6.50;;;10.90;99.90;;;;;;5012251;28;20069;-72
2023/03/31 05:30:25;;;;;;;16.48;6.80;;;11.00;99.90;;;;;;4996149;28;20049;-72
2023/03/31 05:32:51;;;;;;;15.82;6.38;;;10.80;99.90;;;;;;5013294;28;20599;-72
2023/03/31 05:35:17;;;;;;;19.10;7.00;;;10.80;99.90;;;;;;5011854;28;20501;-72
2023/03/31 05:37:43;;;;;;;21.58;6.68;;;10.70;99.90;;;;;;5011844;28;20064;-72
2023/03/31 05:40:09;;;;;;;17.17;7.50;;;10.70;99.90;;;;;;5013211;28;20041;-72
2023/03/31 05:42:35;;;;;;;16.40;7.75;;;;;;;;;;4995488;28;20084;-72
2023/03/31 05:45:01;;;;;;;18.98;7.55;;;;;;;;;;5011621;28;20069;-72
2023/03/31 05:47:27;;;;;;;15.65;6.53;;;10.80;99.90;;;;;;5011797;28;20038;-72
2023/03/31 05:49:53;;;;;;;18.77;6.75;;;;;;;;;;4995681;28;20042;-72
2023/03/31 05:52:18;;;;;;;16.67;6.75;;;10.90;99.90;;;;;;4995325;28;20133;-72
2023/03/31 05:54:44;;;;;;;16.33;6.53;;;;;;;;;;5011874;28;20064;-72
2023/03/31 05:57:10;;;;;;;16.02;6.78;;;10.90;99.90;;;;;;5011787;28;20103;-72
2023/03/31 05:59:37;;;;;;;19.65;6.90;;;10.80;99.90;;;;;;4995432;28;20038;-71
2023/03/31 06:02:03;;;;;;;16.92;6.55;;;11.00;99.90;;;;;;5011432;28;20062;-71
2023/03/31 06:04:31;;;;;;;18.95;7.50;;;;;;;;;;5011326;28;20049;-71
2023/03/31 06:06:57;;;;;;;18.40;7.65;;;;;;;;;;5011531;28;20038;-72
2023/03/31 06:09:23;;;;;;;14.15;5.88;;;;;;;;;;5011717;28;20045;-71
2023/03/31 06:11:49;;;;;;;16.65;5.82;;;;;;;;;;5011631;28;20045;-71
2023/03/31 06:14:16;;;;;;;17.20;6.32;;;;;;;;;;5011083;28;20168;-72
2023/03/31 06:16:41;;;;;;;13.95;5.30;;;;;;;;;;5011317;28;20133;-71
2023/03/31 06:19:07;;;;;;;13.88;6.50;;;;;;;;;;5011238;28;20077;-72
2023/03/31 06:21:34;;;;;;;15.48;5.75;;;11.00;99.90;;;;;;5010915;28;20169;-72
2023/03/31 06:24:00;;;;;;;11.05;4.57;;;;;;;;;;5011193;28;20050;-72
2023/03/31 06:26:26;;;;;;;9.68;4.43;;;;;;;;;;5011364;28;20510;-72
2023/03/31 06:28:52;;;;;;;12.52;4.55;;;;;;;;;;5011806;28;20033;-72
2023/03/31 06:31:21;;;;;;;11.27;4.13;;;10.80;99.90;;;;;;5011335;28;20045;-71
2023/03/31 06:33:47;;;;;;;9.63;3.97;;;10.90;99.90;;;;;;4995021;28;20128;-72
2023/03/31 06:36:15;;;;;;;12.18;4.47;;;11.00;99.90;;;;;;5011154;28;20478;-72
2023/03/31 06:38:41;;;;;;;9.77;4.07;;;10.90;99.90;;;;;;5010905;28;20069;-72
2023/03/31 06:41:08;;;;;;;7.80;4.13;;;10.70;99.90;;;;;;5008669;28;20469;-71
2023/03/31 06:43:34;;;;;;;8.98;4.07;;;10.90;99.90;;;;;;5004989;28;20121;-72
2023/03/31 06:46:00;;;;;;;13.23;4.20;;;11.00;99.90;;;;;;5010303;28;20117;-72
2023/03/31 06:48:26;;;;;;;8.93;4.40;;;10.90;99.90;;;;;;5009837;28;20066;-72
2023/03/31 06:50:53;;;;;;;9.23;3.75;;;10.90;99.90;;;;;;5010387;28;20063;-72
2023/03/31 06:53:19;;;;;;;9.80;4.00;;;;;;;;;;5010140;28;20050;-72
2023/03/31 06:55:45;;;;;;;9.10;3.70;;;;;;;;;;5009992;28;20080;-72
2023/03/31 06:58:11;;;;;;;13.40;4.28;;;10.80;99.90;;;;;;5010029;28;20041;-72
2023/03/31 07:00:36;;;;;;;10.77;4.07;;;11.00;99.90;;;;;;4994178;28;20037;-72
2023/03/31 07:03:03;;;;;;;6.88;4.05;;;;;;;;;;5009922;28;20056;-72
2023/03/31 07:05:29;;;;;;;7.57;3.88;;;;;;;;;;5017996;28;20087;-70
2023/03/31 07:07:57;;;;;;;7.10;3.55;;;11.00;99.90;;;;;;5002244;28;20489;-72
2023/03/31 07:10:24;;;;;;;9.25;3.65;;;11.00;99.90;;;;;;5009335;28;20065;-72
2023/03/31 07:12:50;;;;;;;7.68;3.75;;;;;;;;;;5013040;28;20045;-71
2023/03/31 07:15:15;;;;;;;8.68;3.50;;;11.00;99.90;;;;;;5013263;28;20089;-71
2023/03/31 07:17:41;;;;;;;8.65;3.40;;;11.00;99.90;;;;;;5010933;28;20069;-72
2023/03/31 07:20:11;;;;;;;8.18;3.17;;;11.00;99.90;;;;;;5013266;28;20084;-72
2023/03/31 07:22:37;;;;;;;7.13;3.03;;;;;;;;;;5008612;28;20050;-72
2023/03/31 07:25:03;;;;;;;8.27;3.55;;;;;;;;;;5011027;28;20482;-72
2023/03/31 07:27:30;;;;;;;10.65;3.83;;;;;;;;;;5013826;28;20041;-72
2023/03/31 07:29:55;;;;;;;9.48;3.45;;;10.90;99.90;;;;;;5007759;28;20034;-72
2023/03/31 07:32:22;;;;;;;8.50;3.25;;;;;;;;;;4988563;28;20038;-72
2023/03/31 07:34:48;;;;;;;6.90;3.63;;;;;;;;;;5022210;28;20073;-71
2023/03/31 07:37:14;;;;;;;5.75;3.13;;;;;;;;;;5010676;28;20034;-72
2023/03/31 07:39:40;;;;;;;9.23;3.05;;;;;;;;;;5009886;28;20052;-72
2023/03/31 07:42:06;;;;;;;7.25;3.00;;;;;;;;;;5009000;28;20042;-71
2023/03/31 07:44:33;;;;;;;6.20;2.53;;;11.20;99.90;;;;;;5009574;28;20041;-72
2023/03/31 07:47:03;;;;;;;8.23;3.25;;;11.00;99.90;;;;;;5009493;28;20038;-72
2023/03/31 07:49:29;;;;;;;11.02;3.42;;;11.00;99.90;;;;;;4984112;28;20108;-71
2023/03/31 07:51:55;;;;;;;6.28;3.22;;;;;;;;;;4993390;28;20046;-72
2023/03/31 07:54:21;;;;;;;9.75;3.58;;;11.00;99.90;;;;;;4992096;28;20084;-72
2023/03/31 07:56:47;;;;;;;10.10;3.78;;;11.00;99.90;;;;;;5003738;28;20085;-72
2023/03/31 07:59:13;;;;;;;7.93;3.83;;;11.10;99.90;;;;;;4999522;28;20038;-70
2023/03/31 08:01:39;;;;;;;7.35;3.30;;;;;;;;;;5008062;28;20100;-72
2023/03/31 08:04:05;;;;;;;9.13;3.97;;;;;;;;;;4996430;28;20045;-72
2023/03/31 08:06:31;;;;;;;7.05;3.35;;;;;;;;;;5012867;28;20046;-72
2023/03/31 08:08:57;;;;;;;10.52;3.85;;;;;;;;;;5012745;28;20397;-72
2023/03/31 08:11:24;;;;;;;6.60;3.92;;;10.90;99.90;;;;;;4996584;28;20125;-71
2023/03/31 08:13:51;;;;;;;7.53;3.53;;;11.30;99.90;;;;;;5010567;28;20534;-71
2023/03/31 08:16:17;;;;;;;7.70;3.20;;;;;;;;;;5012328;28;20045;-72
2023/03/31 08:18:42;;;;;;;5.75;3.22;;;11.10;99.90;;;;;;5012623;28;20100;-71
2023/03/31 08:21:08;;;;;;;8.60;3.70;;;11.20;99.90;;;;;;5011372;28;20034;-71
2023/03/31 08:23:35;;;;;;;9.63;3.83;;;11.40;99.90;;;;;;4995828;28;20510;-72
2023/03/31 08:26:18;;;;;;;6.25;3.70;;;11.40;99.90;;;;;;5009030;28;20109;-72
2023/03/31 08:28:45;;;;;;;8.55;3.75;;;;;;;;;;5012729;28;20045;-73
2023/03/31 08:31:11;;;;;;;9.82;4.25;;;11.50;99.90;;;;;;5005010;28;20042;-71
2023/03/31 08:33:37;;;;;;;6.18;3.38;;;11.30;99.90;;;;;;5003599;28;20038;-71
2023/03/31 08:36:05;;;;;;;8.82;3.25;;;11.50;99.90;;;;;;5003963;28;20448;-72
2023/03/31 08:38:31;;;;;;;8.38;4.18;;;;;;;;;;5008028;28;20092;-72
2023/03/31 08:41:01;;;;;;;6.97;3.55;;;;;;;;;;5003302;28;20506;-72
2023/03/31 08:43:31;;;;;;;7.82;3.55;;;;;;;;;;5003433;28;20041;-70
2023/03/31 08:45:57;;;;;;;6.63;3.60;;;;;;;;;;5004305;28;20088;-72
2023/03/31 08:48:28;;;;;;;9.38;3.95;;;11.40;99.90;;;;;;5003045;28;20042;-72
2023/03/31 08:51:05;;;;;;;8.85;3.72;;;11.80;99.90;;;;;;5003674;28;20042;-72
2023/03/31 08:53:36;;;;;;;7.10;3.28;;;11.30;99.90;;;;;;5001768;28;20041;-72
2023/03/31 08:56:05;;;;;;;9.50;3.75;;;11.80;99.90;;;;;;5002878;28;20561;-70
2023/03/31 08:58:47;;;;;;;10.52;3.42;;;11.90;99.90;;;;;;5004087;28;20044;-70
2023/03/31 09:01:52;;;;;;;10.43;3.75;;;11.70;99.90;;;;;;5009007;28;20042;-69
2023/03/31 09:04:24;;;;;;;11.60;4.03;;;11.70;99.90;;;;;;5006866;28;20042;-69
2023/03/31 09:07:10;;;;;;;11.73;4.20;;;12.10;99.90;;;;;;5001728;28;20049;-70
2023/03/31 09:10:14;;;;;;;6.75;3.80;;;11.80;99.90;;;;;;4992091;28;20625;-70
2023/03/31 09:12:49;;;;;;;8.27;4.93;;;11.90;99.90;;;;;;4986172;28;20080;-72
2023/03/31 09:15:31;;;;;;;8.85;4.00;;;12.10;99.90;;;;;;4992308;28;20804;-70
2023/03/31 09:18:05;;;;;;;10.00;4.30;;;12.30;99.90;;;;;;5011745;28;20045;-72
2023/03/31 09:20:36;;;;;;;8.43;3.58;;;12.40;99.90;;;;;;5012149;28;20113;-72
2023/03/31 09:23:26;;;;;;;11.70;5.53;;;12.10;99.90;;;;;;5011399;28;20050;-72
2023/03/31 09:25:53;;;;;;;10.82;4.25;;;;;;;;;;5063339;22;20143;-70
2023/03/31 09:28:24;;;;;;;8.65;3.95;;;12.40;99.90;;;;;;5054061;28;20036;-70
2023/03/31 09:30:50;;;;;;;12.30;4.35;;;12.40;99.90;;;;;;5054406;28;20048;-70
2023/03/31 09:33:30;;;;;;;9.18;3.40;;;12.70;99.90;;;;;;5054360;28;20066;-70
2023/03/31 09:35:57;;;;;;;11.00;4.20;;;12.50;99.90;;;;;;5058837;28;20102;-70
2023/03/31 09:38:28;;;;;;;10.25;4.78;;;;;;;;;;5038158;28;20051;-70
2023/03/31 09:40:54;;;;;;;10.32;3.80;;;;;;;;;;5053987;28;20060;-70
2023/03/31 09:43:28;;;;;;;7.40;3.42;;;12.60;99.90;;;;;;5054198;28;20036;-70
2023/03/31 09:45:55;;;;;;;9.00;3.70;;;12.50;99.90;;;;;;5053755;28;20032;-70
2023/03/31 09:48:25;;;;;;;6.25;3.10;;;12.30;99.90;;;;;;5054258;28;20119;-70
2023/03/31 09:51:00;;;;;;;3.72;2.65;;;12.40;99.90;;;;;;5054523;28;20048;-70
2023/03/31 09:53:47;;;;;;;7.90;3.13;;;12.40;99.90;;;;;;5070370;28;20041;-70
2023/03/31 09:56:30;;;;;;;9.38;3.47;;;12.50;99.90;;;;;;5053928;28;20055;-70
2023/03/31 09:59:01;;;;;;;8.90;3.37;;;12.60;99.90;;;;;;5053443;28;20040;-70
2023/03/31 10:01:28;;;;;;;8.73;3.22;;;12.30;99.90;;;;;;5053192;28;20299;-70
2023/03/31 10:03:55;;;;;;;3.88;2.83;;;;;;;;;;5037701;28;20404;-70
2023/03/31 10:06:22;;;;;;;11.18;3.45;;;12.50;99.90;;;;;;5053535;28;20050;-71
2023/03/31 10:08:55;;;;;;;6.78;3.15;;;12.60;99.90;;;;;;5053986;28;20089;-71
2023/03/31 10:11:21;;;;;;;9.67;3.47;;;12.60;99.90;;;;;;5081563;28;20051;-70
2023/03/31 10:13:51;;;;;;;9.75;3.53;;;12.70;99.90;;;;;;5053761;28;20282;-72
2023/03/31 10:16:29;;;;;;;8.93;3.65;;;12.70;99.90;;;;;;5072660;28;20044;-72
2023/03/31 10:19:18;;;;;;;7.75;3.83;;;12.80;99.90;;;;;;5063016;28;20040;-71
2023/03/31 10:21:57;;;;;;;9.32;4.18;;;12.70;99.90;;;;;;5072524;28;20031;-71
2023/03/31 10:24:23;;;;;;;9.60;3.63;;;;;;;;;;5061500;28;20040;-71
2023/03/31 10:26:52;;;;;;;11.43;4.15;;;12.90;99.90;;;;;;5043010;28;20036;-71
2023/03/31 10:29:25;;;;;;;10.77;3.58;;;13.20;99.90;;;;;;5057981;28;20040;-71
2023/03/31 10:31:51;;;;;;;;;;;12.80;99.90;;;;;;5079014;28;20481;-70
2023/03/31 10:34:17;;;;;;;9.07;3.67;;;;;;;;;;5050607;28;19920;-70
2023/03/31 10:36:50;;;;;;;9.13;3.65;;;13.00;99.90;;;;;;5061307;28;20712;-70
2023/03/31 10:39:18;;;;;;;9.85;4.25;;;13.10;99.90;;;;;;5056248;28;20051;-71
2023/03/31 10:41:49;;;;;;;9.00;3.45;;;13.00;99.90;;;;;;5062127;28;20503;-70
2023/03/31 10:44:36;;;;;;;6.72;3.42;;;13.40;99.90;;;;;;5050264;28;20163;-70
2023/03/31 10:47:14;;;;;;;11.80;4.13;;;13.50;99.90;;;;;;5052671;28;20162;-70
2023/03/31 10:49:42;;;;;;;6.57;3.58;;;13.40;99.90;;;;;;5072076;28;20048;-70
2023/03/31 10:52:20;;;;;;;9.68;3.83;;;13.60;99.90;;;;;;5051720;28;20075;-69
2023/03/31 10:54:53;;;;;;;8.05;3.53;;;13.70;99.90;;;;;;5071153;28;20032;-69
2023/03/31 10:57:36;;;;;;;8.83;3.30;;;13.60;99.90;;;;;;5073030;28;20085;-69
2023/03/31 11:00:11;;;;;;;;;;;13.90;99.90;;;;;;5073748;28;20788;-69
2023/03/31 11:03:07;;;;;;;8.20;3.50;;;14.30;99.90;;;;;;5073606;28;20416;-69
2023/03/31 11:05:44;;;;;;;7.50;3.58;;;14.20;99.90;;;;;;5055915;28;20051;-69
2023/03/31 11:08:35;;;;;;;10.45;3.60;;;14.30;99.90;;;;;;5073397;28;20044;-69
2023/03/31 11:11:38;;;;;;;8.10;3.47;;;14.20;99.90;;;;;;5056668;28;20072;-69
2023/03/31 11:14:21;;;;;;;11.43;3.50;;;14.40;99.90;;;;;;5073191;28;20491;-69
2023/03/31 11:17:19;;;;;;;9.13;4.07;;;14.20;99.90;;;;;;5056623;28;20032;-69
2023/03/31 11:20:14;;;;;;;5.30;2.65;;;15.00;99.90;;;;;;5073017;28;20419;-69
2023/03/31 11:23:02;;;;;;;7.85;2.95;;;14.50;99.90;;;;;;5073343;28;20119;-69
2023/03/31 11:25:46;;;;;;;11.82;3.60;;;14.40;99.90;;;;;;5073045;28;20036;-69
2023/03/31 11:28:47;;;;;;;12.05;3.47;;;14.40;99.90;;;;;;5053943;28;20044;-69
2023/03/31 11:31:22;;;;;;;6.35;2.88;;;14.20;99.90;;;;;;5015697;28;20426;-69
2023/03/31 11:33:56;;;;;;;9.20;3.10;;;14.30;99.90;;;;;;5053089;28;20044;-69
2023/03/31 11:36:40;;;;;;;10.43;2.88;;;14.30;99.90;;;;;;5057407;28;20036;-68
2023/03/31 11:39:31;;;;;;;8.93;2.95;;;14.00;99.90;;;;;;5057216;28;20036;-68
2023/03/31 11:42:04;;;;;;;6.78;2.80;;;13.80;99.90;;;;;;5056972;28;20404;-70
2023/03/31 11:44:37;;;;;;;8.85;2.88;;;14.20;99.90;;;;;;5056942;28;20048;-70
2023/03/31 11:47:18;;;;;;;7.72;3.70;;;13.40;99.90;;;;;;5057156;28;20147;-70
2023/03/31 11:50:11;;;;;;;7.38;2.50;;;13.40;99.90;;;;;;5056949;28;20037;-70
2023/03/31 11:52:46;;;;;;;6.95;2.63;;;13.30;99.90;;;;;;5040227;28;20055;-70
2023/03/31 11:55:21;;;;;;;8.27;2.63;;;13.40;99.90;;;;;;5056897;28;20530;-70
2023/03/31 11:58:02;;;;;;;8.07;2.30;;;13.60;99.90;;;;;;5056865;28;20044;-70
2023/03/31 12:00:51;;;;;;;6.50;2.47;;;13.20;99.90;;;;;;5040288;28;20522;-69
2023/03/31 12:03:28;;;;;;;9.80;3.38;;;13.50;99.90;;;;;;5040626;28;20040;-70
2023/03/31 12:06:02;;;;;;;7.50;3.25;;;13.60;99.90;;;;;;5056684;28;20076;-69
2023/03/31 12:08:38;;;;;;;12.05;3.80;;;13.50;99.90;;;;;;5040150;28;20063;-69
2023/03/31 12:11:20;;;;;;;5.63;3.22;;;14.00;99.90;;;;;;5056805;28;20123;-69
2023/03/31 12:14:12;;;;;;;8.05;3.38;;;13.10;99.90;;;;;;5056728;28;20124;-70
2023/03/31 12:17:09;;;;;;;9.75;3.97;;;13.20;99.90;;;;;;5056397;28;20094;-70
2023/03/31 12:19:38;;;;;;;8.90;4.50;;;13.40;99.90;;;;;;5037141;28;20114;-70
2023/03/31 12:22:39;;;;;;;9.30;3.88;;;13.30;99.90;;;;;;5056319;28;20041;-70
2023/03/31 12:25:16;;;;;;;10.15;4.38;;;13.70;99.90;;;;;;5007813;28;20109;-69
2023/03/31 12:27:49;;;;;;;13.02;4.80;;;13.60;99.90;;;;;;5071523;28;20033;-69
2023/03/31 12:30:27;;;;;;;8.30;3.70;;;13.70;99.90;;;;;;5072561;28;20040;-69
2023/03/31 12:33:20;;;;;;;12.18;3.90;;;13.90;99.90;;;;;;5072020;28;20047;-69
2023/03/31 12:36:16;;;;;;;8.77;3.70;;;13.80;99.90;;;;;;5036222;28;20044;-69
2023/03/31 12:38:55;;;;;;;7.43;3.58;;;14.20;99.90;;;;;;5072367;28;20044;-69
2023/03/31 12:41:27;;;;;;;10.57;3.50;;;14.80;99.90;;;;;;5092637;28;20044;-69
2023/03/31 12:44:22;;;;;;;12.90;4.75;;;14.20;99.90;;;;;;5071539;28;20514;-69
2023/03/31 12:47:06;;;;;;;8.70;3.33;;;14.20;99.90;;;;;;5075063;28;20032;-71
2023/03/31 12:49:50;;;;;;;12.10;4.07;;;14.20;99.90;;;;;;5072174;28;20041;-69
2023/03/31 12:52:44;;;;;;;14.23;4.63;;;14.20;99.90;;;;;;5056316;28;20037;-69
2023/03/31 12:55:40;;;;;;;10.77;3.63;;;14.10;99.90;;;;;;5055676;28;20048;-70
2023/03/31 12:58:21;;;;;;;13.32;4.03;;;14.10;99.90;;;;;;5072842;28;20040;-71
2023/03/31 13:01:22;;;;;;;13.95;3.78;;;14.00;99.90;;;;;;5072673;28;20408;-71
2023/03/31 13:03:48;;;;;;;12.48;4.47;;;;;;;;;;5072644;28;20041;-71
2023/03/31 13:06:36;;;;;;;10.88;3.58;;;13.70;99.90;;;;;;5072292;28;20044;-71
2023/03/31 13:09:42;;;;;;;8.60;2.35;;;13.70;99.90;;;;;;5057164;28;20105;-71
2023/03/31 13:12:14;;;;;;;7.63;2.10;;;13.40;99.90;;;;;;5070370;28;20569;-71
2023/03/31 13:14:42;;;;;;;7.13;2.40;;;13.20;99.90;;;;;;5057076;28;20039;-71
2023/03/31 13:17:28;;;;;;;10.70;2.45;;;13.30;99.90;;;;;;5073112;28;20064;-70
2023/03/31 13:19:55;;;;;;;9.70;2.47;;;13.40;99.90;;;;;;5058873;28;20032;-69
2023/03/31 13:22:35;;;;;;;9.68;2.30;;;13.70;99.90;;;;;;5075605;28;20047;-71
2023/03/31 13:25:25;;;;;;;11.00;2.53;;;13.60;99.90;;;;;;5075204;28;20062;-70
2023/03/31 13:27:52;;;;;;;12.80;2.28;;;;;;;;;;5058810;28;20040;-70
2023/03/31 13:30:37;;;;;;;6.38;2.10;;;13.40;99.90;;;;;;5038804;28;20126;-70
2023/03/31 13:33:08;;;;;;;4.78;1.60;;;13.60;99.90;;;;;;5038431;28;20044;-70